sensor_id;sensor_type;location;lat;lon;timestamp;P1;durP1;ratioP1;P2;durP2;ratioP2
61477;SDS011;47345;52.334;10.392;2024-02-21T00:00:44;14.60;;;6.00;;
61477;SDS011;47345;52.334;10.392;2024-02-21T00:03:14;16.10;;;6.70;;
61477;SDS011;47345;52.334;10.392;2024-02-21T00:05:45;12.60;;;6.10;;
61477;SDS011;47345;52.334;10.392;2024-02-21T00:08:15;15.60;;;6.20;;
61477;SDS011;47345;52.334;10.392;2024-02-21T00:10:46;16.10;;;5.90;;
61477;SDS011;47345;52.334;10.392;2024-02-21T00:13:17;14.90;;;6.50;;
61477;SDS011;47345;52.334;10.392;2024-02-21T00:15:48;11.10;;;5.60;;
61477;SDS011;47345;52.334;10.392;2024-02-21T00:18:18;15.50;;;6.40;;
61477;SDS011;47345;52.334;10.392;2024-02-21T00:20:51;15.60;;;6.10;;
61477;SDS011;47345;52.334;10.392;2024-02-21T00:23:21;20.50;;;7.00;;
61477;SDS011;47345;52.334;10.392;2024-02-21T00:25:52;17.50;;;7.20;;
61477;SDS011;47345;52.334;10.392;2024-02-21T00:28:22;15.90;;;6.90;;
61477;SDS011;47345;52.334;10.392;2024-02-21T00:30:53;17.60;;;6.40;;
61477;SDS011;47345;52.334;10.392;2024-02-21T00:33:23;15.20;;;7.20;;
61477;SDS011;47345;52.334;10.392;2024-02-21T00:35:54;18.60;;;7.00;;
61477;SDS011;47345;52.334;10.392;2024-02-21T00:38:24;14.90;;;7.80;;
61477;SDS011;47345;52.334;10.392;2024-02-21T00:40:54;14.30;;;7.20;;
61477;SDS011;47345;52.334;10.392;2024-02-21T00:43:25;18.60;;;7.60;;
61477;SDS011;47345;52.334;10.392;2024-02-21T00:45:56;20.40;;;8.00;;
61477;SDS011;47345;52.334;10.392;2024-02-21T00:48:26;14.10;;;7.10;;
61477;SDS011;47345;52.334;10.392;2024-02-21T00:50:57;14.70;;;7.30;;
61477;SDS011;47345;52.334;10.392;2024-02-21T00:53:27;20.80;;;7.80;;
61477;SDS011;47345;52.334;10.392;2024-02-21T00:55:57;14.80;;;7.60;;
61477;SDS011;47345;52.334;10.392;2024-02-21T00:58:28;29.20;;;9.30;;
61477;SDS011;47345;52.334;10.392;2024-02-21T01:00:59;24.20;;;8.90;;
61477;SDS011;47345;52.334;10.392;2024-02-21T01:03:31;16.40;;;6.40;;
61477;SDS011;47345;52.334;10.392;2024-02-21T01:06:01;18.60;;;9.10;;
61477;SDS011;47345;52.334;10.392;2024-02-21T01:08:32;16.70;;;8.30;;
61477;SDS011;47345;52.334;10.392;2024-02-21T01:11:02;19.30;;;8.20;;
61477;SDS011;47345;52.334;10.392;2024-02-21T01:13:33;23.40;;;9.20;;
61477;SDS011;47345;52.334;10.392;2024-02-21T01:16:04;24.10;;;9.10;;
61477;SDS011;47345;52.334;10.392;2024-02-21T01:18:36;20.90;;;8.90;;
61477;SDS011;47345;52.334;10.392;2024-02-21T01:21:08;20.10;;;8.60;;
61477;SDS011;47345;52.334;10.392;2024-02-21T01:23:38;23.40;;;9.90;;
61477;SDS011;47345;52.334;10.392;2024-02-21T01:26:09;16.00;;;8.10;;
61477;SDS011;47345;52.334;10.392;2024-02-21T01:28:41;17.40;;;8.70;;
61477;SDS011;47345;52.334;10.392;2024-02-21T01:31:12;24.00;;;9.80;;
61477;SDS011;47345;52.334;10.392;2024-02-21T01:33:43;20.70;;;8.80;;
61477;SDS011;47345;52.334;10.392;2024-02-21T01:36:13;19.40;;;9.10;;
61477;SDS011;47345;52.334;10.392;2024-02-21T01:38:43;19.10;;;9.40;;
61477;SDS011;47345;52.334;10.392;2024-02-21T01:41:14;20.50;;;9.10;;
61477;SDS011;47345;52.334;10.392;2024-02-21T01:43:45;20.90;;;7.80;;
61477;SDS011;47345;52.334;10.392;2024-02-21T01:46:15;22.50;;;10.00;;
61477;SDS011;47345;52.334;10.392;2024-02-21T01:48:47;25.50;;;10.50;;
61477;SDS011;47345;52.334;10.392;2024-02-21T01:51:17;20.20;;;8.80;;
61477;SDS011;47345;52.334;10.392;2024-02-21T01:53:48;22.10;;;9.90;;
61477;SDS011;47345;52.334;10.392;2024-02-21T01:56:20;25.90;;;9.90;;
61477;SDS011;47345;52.334;10.392;2024-02-21T01:58:51;21.20;;;9.10;;
61477;SDS011;47345;52.334;10.392;2024-02-21T02:01:22;19.30;;;9.60;;
61477;SDS011;47345;52.334;10.392;2024-02-21T02:03:53;22.00;;;8.90;;
61477;SDS011;47345;52.334;10.392;2024-02-21T02:06:24;20.00;;;9.00;;
61477;SDS011;47345;52.334;10.392;2024-02-21T02:08:55;19.10;;;9.50;;
61477;SDS011;47345;52.334;10.392;2024-02-21T02:11:27;19.30;;;9.80;;
61477;SDS011;47345;52.334;10.392;2024-02-21T02:13:57;22.10;;;9.60;;
61477;SDS011;47345;52.334;10.392;2024-02-21T02:16:28;22.00;;;9.10;;
61477;SDS011;47345;52.334;10.392;2024-02-21T02:18:58;20.60;;;9.00;;
61477;SDS011;47345;52.334;10.392;2024-02-21T02:21:31;21.60;;;9.40;;
61477;SDS011;47345;52.334;10.392;2024-02-21T02:24:08;21.20;;;9.30;;
61477;SDS011;47345;52.334;10.392;2024-02-21T02:26:38;18.00;;;8.30;;
61477;SDS011;47345;52.334;10.392;2024-02-21T02:29:09;16.30;;;9.30;;
61477;SDS011;47345;52.334;10.392;2024-02-21T02:31:39;18.30;;;8.90;;
61477;SDS011;47345;52.334;10.392;2024-02-21T02:34:10;19.10;;;8.30;;
61477;SDS011;47345;52.334;10.392;2024-02-21T02:36:41;16.60;;;8.10;;
61477;SDS011;47345;52.334;10.392;2024-02-21T02:39:11;17.80;;;8.60;;
61477;SDS011;47345;52.334;10.392;2024-02-21T02:41:41;17.10;;;9.00;;
61477;SDS011;47345;52.334;10.392;2024-02-21T02:44:12;19.60;;;8.50;;
61477;SDS011;47345;52.334;10.392;2024-02-21T02:46:42;20.90;;;9.50;;
61477;SDS011;47345;52.334;10.392;2024-02-21T02:49:13;21.80;;;9.20;;
61477;SDS011;47345;52.334;10.392;2024-02-21T02:51:44;21.70;;;9.90;;
61477;SDS011;47345;52.334;10.392;2024-02-21T02:54:14;22.50;;;9.90;;
61477;SDS011;47345;52.334;10.392;2024-02-21T02:56:45;23.30;;;9.50;;
61477;SDS011;47345;52.334;10.392;2024-02-21T02:59:15;17.50;;;9.00;;
61477;SDS011;47345;52.334;10.392;2024-02-21T03:01:46;20.20;;;9.20;;
61477;SDS011;47345;52.334;10.392;2024-02-21T03:04:16;24.70;;;9.90;;
61477;SDS011;47345;52.334;10.392;2024-02-21T03:06:47;21.90;;;9.50;;
61477;SDS011;47345;52.334;10.392;2024-02-21T03:09:18;21.60;;;9.40;;
61477;SDS011;47345;52.334;10.392;2024-02-21T03:11:48;17.30;;;8.70;;
61477;SDS011;47345;52.334;10.392;2024-02-21T03:14:20;21.50;;;9.50;;
61477;SDS011;47345;52.334;10.392;2024-02-21T03:16:52;20.30;;;9.40;;
61477;SDS011;47345;52.334;10.392;2024-02-21T03:19:23;23.20;;;10.30;;
61477;SDS011;47345;52.334;10.392;2024-02-21T03:21:53;18.50;;;9.20;;
61477;SDS011;47345;52.334;10.392;2024-02-21T03:24:24;17.80;;;9.60;;
61477;SDS011;47345;52.334;10.392;2024-02-21T03:26:54;21.50;;;9.90;;
61477;SDS011;47345;52.334;10.392;2024-02-21T03:29:26;26.30;;;10.00;;
61477;SDS011;47345;52.334;10.392;2024-02-21T03:31:57;15.90;;;8.90;;
61477;SDS011;47345;52.334;10.392;2024-02-21T03:34:27;27.70;;;10.70;;
61477;SDS011;47345;52.334;10.392;2024-02-21T03:36:58;17.00;;;9.10;;
61477;SDS011;47345;52.334;10.392;2024-02-21T03:39:28;19.20;;;9.90;;
61477;SDS011;47345;52.334;10.392;2024-02-21T03:42:01;22.50;;;9.60;;
61477;SDS011;47345;52.334;10.392;2024-02-21T03:44:33;19.80;;;10.60;;
61477;SDS011;47345;52.334;10.392;2024-02-21T03:47:04;19.90;;;10.10;;
61477;SDS011;47345;52.334;10.392;2024-02-21T03:49:34;16.20;;;10.00;;
61477;SDS011;47345;52.334;10.392;2024-02-21T03:52:05;17.30;;;9.30;;
61477;SDS011;47345;52.334;10.392;2024-02-21T03:54:36;18.20;;;9.70;;
61477;SDS011;47345;52.334;10.392;2024-02-21T03:57:07;17.60;;;10.00;;
61477;SDS011;47345;52.334;10.392;2024-02-21T03:59:37;25.00;;;10.40;;
61477;SDS011;47345;52.334;10.392;2024-02-21T04:02:11;20.70;;;10.00;;
61477;SDS011;47345;52.334;10.392;2024-02-21T04:04:44;21.20;;;10.80;;
61477;SDS011;47345;52.334;10.392;2024-02-21T04:07:16;21.10;;;11.50;;
61477;SDS011;47345;52.334;10.392;2024-02-21T04:09:46;19.70;;;9.80;;
61477;SDS011;47345;52.334;10.392;2024-02-21T04:12:17;20.00;;;10.00;;
61477;SDS011;47345;52.334;10.392;2024-02-21T04:14:47;23.50;;;10.60;;
61477;SDS011;47345;52.334;10.392;2024-02-21T04:17:17;20.10;;;9.80;;
61477;SDS011;47345;52.334;10.392;2024-02-21T04:19:48;17.50;;;9.80;;
61477;SDS011;47345;52.334;10.392;2024-02-21T04:22:19;20.10;;;10.60;;
61477;SDS011;47345;52.334;10.392;2024-02-21T04:24:49;19.20;;;9.60;;
61477;SDS011;47345;52.334;10.392;2024-02-21T04:27:20;21.60;;;10.20;;
61477;SDS011;47345;52.334;10.392;2024-02-21T04:29:50;15.80;;;9.00;;
61477;SDS011;47345;52.334;10.392;2024-02-21T04:32:21;19.30;;;9.90;;
61477;SDS011;47345;52.334;10.392;2024-02-21T04:34:52;21.20;;;9.90;;
61477;SDS011;47345;52.334;10.392;2024-02-21T04:37:23;19.10;;;9.80;;
61477;SDS011;47345;52.334;10.392;2024-02-21T04:39:53;18.20;;;10.00;;
61477;SDS011;47345;52.334;10.392;2024-02-21T04:42:24;17.10;;;9.20;;
61477;SDS011;47345;52.334;10.392;2024-02-21T04:44:54;19.50;;;9.80;;
61477;SDS011;47345;52.334;10.392;2024-02-21T04:47:25;18.90;;;9.30;;
61477;SDS011;47345;52.334;10.392;2024-02-21T04:49:56;20.90;;;9.10;;
61477;SDS011;47345;52.334;10.392;2024-02-21T04:52:27;21.70;;;9.30;;
61477;SDS011;47345;52.334;10.392;2024-02-21T04:54:58;17.60;;;10.20;;
61477;SDS011;47345;52.334;10.392;2024-02-21T04:57:28;15.00;;;9.00;;
61477;SDS011;47345;52.334;10.392;2024-02-21T04:59:59;16.90;;;9.50;;
61477;SDS011;47345;52.334;10.392;2024-02-21T05:02:29;19.50;;;11.30;;
61477;SDS011;47345;52.334;10.392;2024-02-21T05:05:00;20.40;;;10.00;;
61477;SDS011;47345;52.334;10.392;2024-02-21T05:07:31;18.10;;;10.30;;
61477;SDS011;47345;52.334;10.392;2024-02-21T05:10:03;17.50;;;8.90;;
61477;SDS011;47345;52.334;10.392;2024-02-21T05:12:35;13.50;;;8.40;;
61477;SDS011;47345;52.334;10.392;2024-02-21T05:15:07;15.70;;;9.40;;
61477;SDS011;47345;52.334;10.392;2024-02-21T05:17:38;22.10;;;9.70;;
61477;SDS011;47345;52.334;10.392;2024-02-21T05:20:09;25.10;;;11.90;;
61477;SDS011;47345;52.334;10.392;2024-02-21T05:22:43;19.80;;;9.60;;
61477;SDS011;47345;52.334;10.392;2024-02-21T05:25:16;19.70;;;10.10;;
61477;SDS011;47345;52.334;10.392;2024-02-21T05:27:47;17.00;;;9.30;;
61477;SDS011;47345;52.334;10.392;2024-02-21T05:30:20;17.80;;;9.60;;
61477;SDS011;47345;52.334;10.392;2024-02-21T05:32:51;16.50;;;9.50;;
61477;SDS011;47345;52.334;10.392;2024-02-21T05:35:25;23.10;;;10.30;;
61477;SDS011;47345;52.334;10.392;2024-02-21T05:37:57;18.50;;;9.80;;
61477;SDS011;47345;52.334;10.392;2024-02-21T05:40:28;15.00;;;9.60;;
61477;SDS011;47345;52.334;10.392;2024-02-21T05:42:59;20.00;;;10.50;;
61477;SDS011;47345;52.334;10.392;2024-02-21T05:45:29;22.90;;;11.00;;
61477;SDS011;47345;52.334;10.392;2024-02-21T05:48:00;18.50;;;11.70;;
61477;SDS011;47345;52.334;10.392;2024-02-21T05:50:31;21.40;;;11.20;;
61477;SDS011;47345;52.334;10.392;2024-02-21T05:53:01;20.60;;;9.90;;
61477;SDS011;47345;52.334;10.392;2024-02-21T05:55:32;16.00;;;9.80;;
61477;SDS011;47345;52.334;10.392;2024-02-21T05:58:03;28.60;;;10.80;;
61477;SDS011;47345;52.334;10.392;2024-02-21T06:00:33;14.90;;;9.10;;
61477;SDS011;47345;52.334;10.392;2024-02-21T06:03:04;17.90;;;10.40;;
61477;SDS011;47345;52.334;10.392;2024-02-21T06:05:38;18.60;;;9.60;;
61477;SDS011;47345;52.334;10.392;2024-02-21T06:08:08;17.50;;;9.40;;
61477;SDS011;47345;52.334;10.392;2024-02-21T06:10:39;15.30;;;8.50;;
61477;SDS011;47345;52.334;10.392;2024-02-21T06:13:09;18.20;;;10.00;;
61477;SDS011;47345;52.334;10.392;2024-02-21T06:15:40;17.10;;;8.60;;
61477;SDS011;47345;52.334;10.392;2024-02-21T06:18:10;19.60;;;9.40;;
61477;SDS011;47345;52.334;10.392;2024-02-21T06:20:41;18.80;;;9.30;;
61477;SDS011;47345;52.334;10.392;2024-02-21T06:23:15;17.00;;;9.30;;
61477;SDS011;47345;52.334;10.392;2024-02-21T06:25:46;15.70;;;7.80;;
61477;SDS011;47345;52.334;10.392;2024-02-21T06:28:16;17.60;;;10.00;;
61477;SDS011;47345;52.334;10.392;2024-02-21T06:30:46;16.90;;;9.30;;
61477;SDS011;47345;52.334;10.392;2024-02-21T06:33:17;19.60;;;10.00;;
61477;SDS011;47345;52.334;10.392;2024-02-21T06:35:52;21.00;;;9.70;;
61477;SDS011;47345;52.334;10.392;2024-02-21T06:38:23;17.70;;;8.80;;
61477;SDS011;47345;52.334;10.392;2024-02-21T06:40:53;15.50;;;8.40;;
61477;SDS011;47345;52.334;10.392;2024-02-21T06:43:26;15.70;;;8.60;;
61477;SDS011;47345;52.334;10.392;2024-02-21T06:45:57;19.00;;;8.30;;
61477;SDS011;47345;52.334;10.392;2024-02-21T06:48:27;14.00;;;8.80;;
61477;SDS011;47345;52.334;10.392;2024-02-21T06:50:58;15.50;;;8.50;;
61477;SDS011;47345;52.334;10.392;2024-02-21T06:53:28;19.10;;;9.60;;
61477;SDS011;47345;52.334;10.392;2024-02-21T06:55:58;19.60;;;9.30;;
61477;SDS011;47345;52.334;10.392;2024-02-21T06:58:29;17.90;;;9.60;;
61477;SDS011;47345;52.334;10.392;2024-02-21T07:01:00;15.70;;;8.40;;
61477;SDS011;47345;52.334;10.392;2024-02-21T07:03:30;16.70;;;8.20;;
61477;SDS011;47345;52.334;10.392;2024-02-21T07:06:01;17.80;;;8.50;;
61477;SDS011;47345;52.334;10.392;2024-02-21T07:08:32;22.90;;;9.20;;
61477;SDS011;47345;52.334;10.392;2024-02-21T07:11:03;15.10;;;8.60;;
61477;SDS011;47345;52.334;10.392;2024-02-21T07:13:34;18.00;;;9.10;;
61477;SDS011;47345;52.334;10.392;2024-02-21T07:16:05;17.30;;;8.20;;
61477;SDS011;47345;52.334;10.392;2024-02-21T07:18:36;18.60;;;8.30;;
61477;SDS011;47345;52.334;10.392;2024-02-21T07:21:07;13.50;;;8.20;;
61477;SDS011;47345;52.334;10.392;2024-02-21T07:23:37;19.60;;;8.90;;
61477;SDS011;47345;52.334;10.392;2024-02-21T07:26:10;14.10;;;7.40;;
61477;SDS011;47345;52.334;10.392;2024-02-21T07:28:41;18.00;;;9.10;;
61477;SDS011;47345;52.334;10.392;2024-02-21T07:31:11;16.30;;;9.10;;
61477;SDS011;47345;52.334;10.392;2024-02-21T07:33:42;14.60;;;8.60;;
61477;SDS011;47345;52.334;10.392;2024-02-21T07:36:14;15.80;;;7.50;;
61477;SDS011;47345;52.334;10.392;2024-02-21T07:38:52;20.30;;;8.60;;
61477;SDS011;47345;52.334;10.392;2024-02-21T07:41:23;17.70;;;8.90;;
61477;SDS011;47345;52.334;10.392;2024-02-21T07:43:53;15.30;;;9.40;;
61477;SDS011;47345;52.334;10.392;2024-02-21T07:46:24;20.50;;;8.80;;
61477;SDS011;47345;52.334;10.392;2024-02-21T07:48:54;14.40;;;7.70;;
61477;SDS011;47345;52.334;10.392;2024-02-21T07:51:28;15.40;;;8.30;;
61477;SDS011;47345;52.334;10.392;2024-02-21T07:53:58;13.10;;;8.20;;
61477;SDS011;47345;52.334;10.392;2024-02-21T07:56:29;15.60;;;7.80;;
61477;SDS011;47345;52.334;10.392;2024-02-21T07:59:00;18.10;;;8.10;;
61477;SDS011;47345;52.334;10.392;2024-02-21T08:01:30;15.90;;;8.50;;
61477;SDS011;47345;52.334;10.392;2024-02-21T08:04:01;14.10;;;7.80;;
61477;SDS011;47345;52.334;10.392;2024-02-21T08:06:32;13.20;;;7.00;;
61477;SDS011;47345;52.334;10.392;2024-02-21T08:09:03;16.00;;;8.20;;
61477;SDS011;47345;52.334;10.392;2024-02-21T08:11:33;13.60;;;7.20;;
61477;SDS011;47345;52.334;10.392;2024-02-21T08:14:04;17.00;;;7.60;;
61477;SDS011;47345;52.334;10.392;2024-02-21T08:16:35;15.10;;;7.50;;
61477;SDS011;47345;52.334;10.392;2024-02-21T08:19:06;14.20;;;7.40;;
61477;SDS011;47345;52.334;10.392;2024-02-21T08:21:38;15.00;;;7.40;;
61477;SDS011;47345;52.334;10.392;2024-02-21T08:24:08;15.40;;;7.40;;
61477;SDS011;47345;52.334;10.392;2024-02-21T08:26:41;15.70;;;8.40;;
61477;SDS011;47345;52.334;10.392;2024-02-21T08:29:12;10.60;;;7.50;;
61477;SDS011;47345;52.334;10.392;2024-02-21T08:31:43;17.20;;;9.00;;
61477;SDS011;47345;52.334;10.392;2024-02-21T08:34:13;11.40;;;7.40;;
61477;SDS011;47345;52.334;10.392;2024-02-21T08:36:45;15.10;;;7.40;;
61477;SDS011;47345;52.334;10.392;2024-02-21T08:39:16;14.90;;;7.90;;
61477;SDS011;47345;52.334;10.392;2024-02-21T08:41:46;12.40;;;7.30;;
61477;SDS011;47345;52.334;10.392;2024-02-21T08:44:24;17.70;;;8.20;;
61477;SDS011;47345;52.334;10.392;2024-02-21T08:46:56;16.60;;;8.00;;
61477;SDS011;47345;52.334;10.392;2024-02-21T08:49:27;14.10;;;7.70;;
61477;SDS011;47345;52.334;10.392;2024-02-21T08:52:01;15.30;;;7.50;;
61477;SDS011;47345;52.334;10.392;2024-02-21T08:54:32;16.30;;;8.00;;
61477;SDS011;47345;52.334;10.392;2024-02-21T08:57:03;15.40;;;8.70;;
61477;SDS011;47345;52.334;10.392;2024-02-21T08:59:34;13.00;;;6.90;;
61477;SDS011;47345;52.334;10.392;2024-02-21T09:02:05;15.50;;;7.40;;
61477;SDS011;47345;52.334;10.392;2024-02-21T09:04:36;14.00;;;7.70;;
61477;SDS011;47345;52.334;10.392;2024-02-21T09:07:07;17.70;;;7.90;;
61477;SDS011;47345;52.334;10.392;2024-02-21T09:09:38;17.00;;;7.70;;
61477;SDS011;47345;52.334;10.392;2024-02-21T09:12:08;18.10;;;8.60;;
61477;SDS011;47345;52.334;10.392;2024-02-21T09:14:39;13.00;;;6.80;;
61477;SDS011;47345;52.334;10.392;2024-02-21T09:17:09;11.20;;;6.80;;
61477;SDS011;47345;52.334;10.392;2024-02-21T09:19:40;10.10;;;6.40;;
61477;SDS011;47345;52.334;10.392;2024-02-21T09:22:10;12.30;;;6.90;;
61477;SDS011;47345;52.334;10.392;2024-02-21T09:24:41;13.80;;;7.20;;
61477;SDS011;47345;52.334;10.392;2024-02-21T09:27:11;11.80;;;6.40;;
61477;SDS011;47345;52.334;10.392;2024-02-21T09:29:42;14.40;;;6.00;;
61477;SDS011;47345;52.334;10.392;2024-02-21T09:32:13;15.50;;;5.70;;
61477;SDS011;47345;52.334;10.392;2024-02-21T09:34:43;12.00;;;6.10;;
61477;SDS011;47345;52.334;10.392;2024-02-21T09:37:14;12.10;;;5.90;;
61477;SDS011;47345;52.334;10.392;2024-02-21T09:39:45;14.70;;;5.30;;
61477;SDS011;47345;52.334;10.392;2024-02-21T09:42:15;13.50;;;5.60;;
61477;SDS011;47345;52.334;10.392;2024-02-21T09:44:49;8.10;;;4.60;;
61477;SDS011;47345;52.334;10.392;2024-02-21T09:47:22;8.40;;;5.00;;
61477;SDS011;47345;52.334;10.392;2024-02-21T09:50:01;9.50;;;5.40;;
61477;SDS011;47345;52.334;10.392;2024-02-21T09:52:35;11.70;;;4.70;;
61477;SDS011;47345;52.334;10.392;2024-02-21T09:55:08;10.20;;;3.90;;
61477;SDS011;47345;52.334;10.392;2024-02-21T09:57:40;9.10;;;4.40;;
61477;SDS011;47345;52.334;10.392;2024-02-21T10:00:13;8.30;;;4.20;;
61477;SDS011;47345;52.334;10.392;2024-02-21T10:02:49;9.50;;;4.50;;
61477;SDS011;47345;52.334;10.392;2024-02-21T10:05:20;12.30;;;4.90;;
61477;SDS011;47345;52.334;10.392;2024-02-21T10:07:52;9.30;;;4.90;;
61477;SDS011;47345;52.334;10.392;2024-02-21T10:10:24;11.60;;;4.40;;
61477;SDS011;47345;52.334;10.392;2024-02-21T10:12:55;8.00;;;4.30;;
61477;SDS011;47345;52.334;10.392;2024-02-21T10:15:26;7.60;;;3.80;;
61477;SDS011;47345;52.334;10.392;2024-02-21T10:18:00;7.90;;;3.80;;
61477;SDS011;47345;52.334;10.392;2024-02-21T10:20:32;12.10;;;4.20;;
61477;SDS011;47345;52.334;10.392;2024-02-21T10:23:03;6.70;;;3.80;;
61477;SDS011;47345;52.334;10.392;2024-02-21T10:25:37;7.80;;;4.00;;
61477;SDS011;47345;52.334;10.392;2024-02-21T10:28:13;9.80;;;4.50;;
61477;SDS011;47345;52.334;10.392;2024-02-21T10:30:50;8.30;;;4.30;;
61477;SDS011;47345;52.334;10.392;2024-02-21T10:33:21;6.50;;;4.20;;
61477;SDS011;47345;52.334;10.392;2024-02-21T10:35:53;6.20;;;4.20;;
61477;SDS011;47345;52.334;10.392;2024-02-21T10:38:34;5.90;;;3.60;;
61477;SDS011;47345;52.334;10.392;2024-02-21T10:41:06;9.10;;;3.80;;
61477;SDS011;47345;52.334;10.392;2024-02-21T10:43:39;12.00;;;4.30;;
61477;SDS011;47345;52.334;10.392;2024-02-21T10:46:09;9.30;;;4.20;;
61477;SDS011;47345;52.334;10.392;2024-02-21T10:48:43;10.80;;;4.00;;
61477;SDS011;47345;52.334;10.392;2024-02-21T10:51:18;6.30;;;3.50;;
61477;SDS011;47345;52.334;10.392;2024-02-21T10:53:54;8.10;;;3.70;;
61477;SDS011;47345;52.334;10.392;2024-02-21T10:56:37;9.20;;;3.50;;
61477;SDS011;47345;52.334;10.392;2024-02-21T10:59:09;5.60;;;3.50;;
61477;SDS011;47345;52.334;10.392;2024-02-21T11:01:41;8.50;;;3.30;;
61477;SDS011;47345;52.334;10.392;2024-02-21T11:04:12;6.80;;;3.30;;
61477;SDS011;47345;52.334;10.392;2024-02-21T11:06:44;8.60;;;3.60;;
61477;SDS011;47345;52.334;10.392;2024-02-21T11:09:16;7.80;;;3.10;;
61477;SDS011;47345;52.334;10.392;2024-02-21T11:11:46;6.20;;;3.20;;
61477;SDS011;47345;52.334;10.392;2024-02-21T11:14:19;8.60;;;3.20;;
61477;SDS011;47345;52.334;10.392;2024-02-21T11:16:50;6.60;;;3.20;;
61477;SDS011;47345;52.334;10.392;2024-02-21T11:19:21;6.40;;;3.20;;
61477;SDS011;47345;52.334;10.392;2024-02-21T11:21:54;11.40;;;3.20;;
61477;SDS011;47345;52.334;10.392;2024-02-21T11:24:31;9.60;;;3.00;;
61477;SDS011;47345;52.334;10.392;2024-02-21T11:27:13;7.70;;;3.80;;
61477;SDS011;47345;52.334;10.392;2024-02-21T11:29:44;8.70;;;3.40;;
61477;SDS011;47345;52.334;10.392;2024-02-21T11:32:15;7.40;;;3.20;;
61477;SDS011;47345;52.334;10.392;2024-02-21T11:34:58;7.00;;;3.40;;
61477;SDS011;47345;52.334;10.392;2024-02-21T11:37:32;9.00;;;3.30;;
61477;SDS011;47345;52.334;10.392;2024-02-21T11:40:06;7.60;;;2.80;;
61477;SDS011;47345;52.334;10.392;2024-02-21T11:42:39;5.50;;;3.10;;
61477;SDS011;47345;52.334;10.392;2024-02-21T11:45:10;7.30;;;3.10;;
61477;SDS011;47345;52.334;10.392;2024-02-21T11:47:43;6.70;;;3.10;;
61477;SDS011;47345;52.334;10.392;2024-02-21T11:50:14;9.30;;;4.00;;
61477;SDS011;47345;52.334;10.392;2024-02-21T11:52:49;7.10;;;3.30;;
61477;SDS011;47345;52.334;10.392;2024-02-21T11:55:23;7.30;;;3.40;;
61477;SDS011;47345;52.334;10.392;2024-02-21T11:57:53;7.10;;;3.30;;
61477;SDS011;47345;52.334;10.392;2024-02-21T12:00:25;7.20;;;3.10;;
61477;SDS011;47345;52.334;10.392;2024-02-21T12:02:56;6.60;;;3.20;;
61477;SDS011;47345;52.334;10.392;2024-02-21T12:05:30;11.00;;;3.60;;
61477;SDS011;47345;52.334;10.392;2024-02-21T12:08:01;7.20;;;3.40;;
61477;SDS011;47345;52.334;10.392;2024-02-21T12:10:32;7.70;;;4.10;;
61477;SDS011;47345;52.334;10.392;2024-02-21T12:13:07;7.60;;;3.30;;
61477;SDS011;47345;52.334;10.392;2024-02-21T12:15:39;10.70;;;3.50;;
61477;SDS011;47345;52.334;10.392;2024-02-21T12:18:11;6.30;;;2.90;;
61477;SDS011;47345;52.334;10.392;2024-02-21T12:20:41;7.00;;;3.10;;
61477;SDS011;47345;52.334;10.392;2024-02-21T12:23:14;5.10;;;3.10;;
61477;SDS011;47345;52.334;10.392;2024-02-21T12:25:47;7.70;;;3.10;;
61477;SDS011;47345;52.334;10.392;2024-02-21T12:28:17;6.70;;;2.90;;
61477;SDS011;47345;52.334;10.392;2024-02-21T12:30:49;7.80;;;3.20;;
61477;SDS011;47345;52.334;10.392;2024-02-21T12:33:20;5.10;;;2.70;;
61477;SDS011;47345;52.334;10.392;2024-02-21T12:35:51;5.10;;;3.10;;
61477;SDS011;47345;52.334;10.392;2024-02-21T12:38:23;4.70;;;3.00;;
61477;SDS011;47345;52.334;10.392;2024-02-21T12:40:53;5.10;;;2.90;;
61477;SDS011;47345;52.334;10.392;2024-02-21T12:43:25;4.70;;;2.80;;
61477;SDS011;47345;52.334;10.392;2024-02-21T12:45:55;6.90;;;2.80;;
61477;SDS011;47345;52.334;10.392;2024-02-21T12:48:26;6.50;;;3.60;;
61477;SDS011;47345;52.334;10.392;2024-02-21T12:50:59;8.00;;;3.40;;
61477;SDS011;47345;52.334;10.392;2024-02-21T12:53:30;7.10;;;3.80;;
61477;SDS011;47345;52.334;10.392;2024-02-21T12:56:02;10.70;;;4.10;;
61477;SDS011;47345;52.334;10.392;2024-02-21T12:58:35;11.10;;;4.10;;
61477;SDS011;47345;52.334;10.392;2024-02-21T13:01:06;8.60;;;4.30;;
61477;SDS011;47345;52.334;10.392;2024-02-21T13:03:36;7.90;;;4.60;;
61477;SDS011;47345;52.334;10.392;2024-02-21T13:06:07;9.70;;;5.00;;
61477;SDS011;47345;52.334;10.392;2024-02-21T13:08:38;10.60;;;5.20;;
61477;SDS011;47345;52.334;10.392;2024-02-21T13:11:09;10.50;;;5.70;;
61477;SDS011;47345;52.334;10.392;2024-02-21T13:13:40;8.50;;;5.80;;
61477;SDS011;47345;52.334;10.392;2024-02-21T13:16:12;8.20;;;5.40;;
61477;SDS011;47345;52.334;10.392;2024-02-21T13:18:42;7.30;;;5.80;;
61477;SDS011;47345;52.334;10.392;2024-02-21T13:21:15;9.80;;;5.50;;
61477;SDS011;47345;52.334;10.392;2024-02-21T13:23:46;12.00;;;5.90;;
61477;SDS011;47345;52.334;10.392;2024-02-21T13:26:17;10.70;;;6.10;;
61477;SDS011;47345;52.334;10.392;2024-02-21T13:28:48;9.70;;;5.80;;
61477;SDS011;47345;52.334;10.392;2024-02-21T13:31:18;11.60;;;6.40;;
61477;SDS011;47345;52.334;10.392;2024-02-21T13:33:49;10.50;;;6.00;;
61477;SDS011;47345;52.334;10.392;2024-02-21T13:36:19;11.10;;;6.10;;
61477;SDS011;47345;52.334;10.392;2024-02-21T13:38:51;11.60;;;6.10;;
61477;SDS011;47345;52.334;10.392;2024-02-21T13:41:21;11.60;;;5.70;;
61477;SDS011;47345;52.334;10.392;2024-02-21T13:43:52;11.50;;;6.00;;
61477;SDS011;47345;52.334;10.392;2024-02-21T13:46:22;12.80;;;6.40;;
61477;SDS011;47345;52.334;10.392;2024-02-21T13:48:54;9.70;;;6.10;;
61477;SDS011;47345;52.334;10.392;2024-02-21T13:51:34;9.50;;;6.70;;
61477;SDS011;47345;52.334;10.392;2024-02-21T13:54:05;8.90;;;5.70;;
61477;SDS011;47345;52.334;10.392;2024-02-21T13:56:37;8.30;;;5.90;;
61477;SDS011;47345;52.334;10.392;2024-02-21T13:59:07;10.00;;;6.60;;
61477;SDS011;47345;52.334;10.392;2024-02-21T14:01:38;11.60;;;5.70;;
61477;SDS011;47345;52.334;10.392;2024-02-21T14:04:08;12.20;;;6.20;;
61477;SDS011;47345;52.334;10.392;2024-02-21T14:06:39;9.80;;;6.20;;
61477;SDS011;47345;52.334;10.392;2024-02-21T14:09:11;7.00;;;5.50;;
61477;SDS011;47345;52.334;10.392;2024-02-21T14:11:41;11.80;;;5.40;;
61477;SDS011;47345;52.334;10.392;2024-02-21T14:14:13;9.30;;;4.60;;
61477;SDS011;47345;52.334;10.392;2024-02-21T14:16:43;8.60;;;4.80;;
61477;SDS011;47345;52.334;10.392;2024-02-21T14:19:15;7.80;;;5.00;;
61477;SDS011;47345;52.334;10.392;2024-02-21T14:21:46;9.90;;;5.50;;
61477;SDS011;47345;52.334;10.392;2024-02-21T14:24:17;6.60;;;4.80;;
61477;SDS011;47345;52.334;10.392;2024-02-21T14:26:50;8.00;;;4.50;;
61477;SDS011;47345;52.334;10.392;2024-02-21T14:29:20;8.20;;;5.10;;
61477;SDS011;47345;52.334;10.392;2024-02-21T14:31:51;8.90;;;5.00;;
61477;SDS011;47345;52.334;10.392;2024-02-21T14:34:21;9.00;;;4.30;;
61477;SDS011;47345;52.334;10.392;2024-02-21T14:36:52;7.70;;;3.90;;
61477;SDS011;47345;52.334;10.392;2024-02-21T14:39:23;10.00;;;3.30;;
61477;SDS011;47345;52.334;10.392;2024-02-21T14:41:55;7.40;;;3.60;;
61477;SDS011;47345;52.334;10.392;2024-02-21T14:44:25;7.00;;;3.40;;
61477;SDS011;47345;52.334;10.392;2024-02-21T14:46:56;8.10;;;3.30;;